sensor_id;sensor_type;location;lat;lon;timestamp;P1;durP1;ratioP1;P2;durP2;ratioP2
68993;SDS011;56054;50.968;5.816;2024-01-06T00:01:39;21.37;;;12.20;;
68993;SDS011;56054;50.968;5.816;2024-01-06T00:04:46;21.13;;;12.50;;
68993;SDS011;56054;50.968;5.816;2024-01-06T00:07:53;24.53;;;13.03;;
68993;SDS011;56054;50.968;5.816;2024-01-06T00:11:00;23.10;;;13.57;;
68993;SDS011;56054;50.968;5.816;2024-01-06T00:14:07;26.70;;;13.33;;
68993;SDS011;56054;50.968;5.816;2024-01-06T00:17:15;22.03;;;11.57;;
68993;SDS011;56054;50.968;5.816;2024-01-06T00:20:22;26.43;;;14.00;;
68993;SDS011;56054;50.968;5.816;2024-01-06T00:23:29;26.57;;;14.00;;
68993;SDS011;56054;50.968;5.816;2024-01-06T00:26:36;28.17;;;14.33;;
68993;SDS011;56054;50.968;5.816;2024-01-06T00:29:43;24.63;;;13.70;;
68993;SDS011;56054;50.968;5.816;2024-01-06T00:32:50;28.20;;;13.50;;
68993;SDS011;56054;50.968;5.816;2024-01-06T00:35:57;24.77;;;13.97;;
68993;SDS011;56054;50.968;5.816;2024-01-06T00:39:04;26.87;;;12.93;;
68993;SDS011;56054;50.968;5.816;2024-01-06T00:42:11;27.53;;;13.07;;
68993;SDS011;56054;50.968;5.816;2024-01-06T00:45:18;24.10;;;14.20;;
68993;SDS011;56054;50.968;5.816;2024-01-06T00:48:25;26.77;;;12.93;;
68993;SDS011;56054;50.968;5.816;2024-01-06T00:51:32;24.87;;;12.00;;
68993;SDS011;56054;50.968;5.816;2024-01-06T00:54:39;29.93;;;14.13;;
68993;SDS011;56054;50.968;5.816;2024-01-06T00:57:46;25.87;;;13.30;;
68993;SDS011;56054;50.968;5.816;2024-01-06T01:00:53;26.03;;;14.37;;
68993;SDS011;56054;50.968;5.816;2024-01-06T01:04:00;24.70;;;13.43;;
68993;SDS011;56054;50.968;5.816;2024-01-06T01:07:07;26.90;;;12.40;;
68993;SDS011;56054;50.968;5.816;2024-01-06T01:10:14;23.70;;;13.10;;
68993;SDS011;56054;50.968;5.816;2024-01-06T01:13:21;25.13;;;13.13;;
68993;SDS011;56054;50.968;5.816;2024-01-06T01:16:28;22.37;;;12.77;;
68993;SDS011;56054;50.968;5.816;2024-01-06T01:19:35;21.60;;;11.17;;
68993;SDS011;56054;50.968;5.816;2024-01-06T01:22:42;21.10;;;12.40;;
68993;SDS011;56054;50.968;5.816;2024-01-06T01:25:49;25.87;;;13.03;;
68993;SDS011;56054;50.968;5.816;2024-01-06T01:28:56;24.20;;;12.20;;
68993;SDS011;56054;50.968;5.816;2024-01-06T01:32:03;24.67;;;11.30;;
68993;SDS011;56054;50.968;5.816;2024-01-06T01:35:10;23.03;;;12.77;;
68993;SDS011;56054;50.968;5.816;2024-01-06T01:38:17;20.30;;;9.73;;
68993;SDS011;56054;50.968;5.816;2024-01-06T01:41:24;17.73;;;8.33;;
68993;SDS011;56054;50.968;5.816;2024-01-06T01:44:31;15.20;;;7.47;;
68993;SDS011;56054;50.968;5.816;2024-01-06T01:47:38;13.03;;;5.73;;
68993;SDS011;56054;50.968;5.816;2024-01-06T01:50:46;17.57;;;7.23;;
68993;SDS011;56054;50.968;5.816;2024-01-06T01:53:53;16.20;;;5.63;;
68993;SDS011;56054;50.968;5.816;2024-01-06T01:57:02;12.27;;;4.17;;
68993;SDS011;56054;50.968;5.816;2024-01-06T02:00:09;14.43;;;5.53;;
68993;SDS011;56054;50.968;5.816;2024-01-06T02:03:17;13.00;;;5.30;;
68993;SDS011;56054;50.968;5.816;2024-01-06T02:06:24;10.67;;;5.87;;
68993;SDS011;56054;50.968;5.816;2024-01-06T02:09:31;8.47;;;4.97;;
68993;SDS011;56054;50.968;5.816;2024-01-06T02:12:38;11.53;;;5.23;;
68993;SDS011;56054;50.968;5.816;2024-01-06T02:15:45;12.30;;;5.23;;
68993;SDS011;56054;50.968;5.816;2024-01-06T02:18:52;11.33;;;4.87;;
68993;SDS011;56054;50.968;5.816;2024-01-06T02:21:59;10.10;;;5.63;;
68993;SDS011;56054;50.968;5.816;2024-01-06T02:25:07;12.00;;;5.07;;
68993;SDS011;56054;50.968;5.816;2024-01-06T02:28:14;7.30;;;4.97;;
68993;SDS011;56054;50.968;5.816;2024-01-06T02:31:21;12.87;;;6.07;;
68993;SDS011;56054;50.968;5.816;2024-01-06T02:34:35;11.13;;;5.73;;
68993;SDS011;56054;50.968;5.816;2024-01-06T02:37:42;11.73;;;5.83;;
68993;SDS011;56054;50.968;5.816;2024-01-06T02:40:49;11.17;;;5.83;;
68993;SDS011;56054;50.968;5.816;2024-01-06T02:43:56;13.57;;;7.27;;
68993;SDS011;56054;50.968;5.816;2024-01-06T02:47:03;13.63;;;7.73;;
68993;SDS011;56054;50.968;5.816;2024-01-06T02:50:10;12.47;;;6.90;;
68993;SDS011;56054;50.968;5.816;2024-01-06T02:53:17;11.63;;;7.17;;
68993;SDS011;56054;50.968;5.816;2024-01-06T02:56:24;11.80;;;7.37;;
68993;SDS011;56054;50.968;5.816;2024-01-06T02:59:31;13.87;;;6.67;;
68993;SDS011;56054;50.968;5.816;2024-01-06T03:02:38;14.17;;;8.13;;
68993;SDS011;56054;50.968;5.816;2024-01-06T03:05:45;15.10;;;8.57;;
68993;SDS011;56054;50.968;5.816;2024-01-06T03:08:52;16.77;;;9.10;;
68993;SDS011;56054;50.968;5.816;2024-01-06T03:11:59;17.93;;;8.17;;
68993;SDS011;56054;50.968;5.816;2024-01-06T03:15:06;17.73;;;8.27;;
68993;SDS011;56054;50.968;5.816;2024-01-06T03:18:13;22.53;;;8.77;;
68993;SDS011;56054;50.968;5.816;2024-01-06T03:21:20;18.17;;;9.53;;
68993;SDS011;56054;50.968;5.816;2024-01-06T03:24:27;20.77;;;10.30;;
68993;SDS011;56054;50.968;5.816;2024-01-06T03:27:34;18.37;;;10.43;;
68993;SDS011;56054;50.968;5.816;2024-01-06T03:30:41;18.57;;;10.43;;
68993;SDS011;56054;50.968;5.816;2024-01-06T03:33:48;20.50;;;10.93;;
68993;SDS011;56054;50.968;5.816;2024-01-06T03:36:55;23.77;;;10.57;;
68993;SDS011;56054;50.968;5.816;2024-01-06T03:40:02;21.03;;;11.23;;
68993;SDS011;56054;50.968;5.816;2024-01-06T03:43:09;19.80;;;10.97;;
68993;SDS011;56054;50.968;5.816;2024-01-06T03:46:16;18.77;;;10.07;;
68993;SDS011;56054;50.968;5.816;2024-01-06T03:49:24;16.73;;;9.63;;
68993;SDS011;56054;50.968;5.816;2024-01-06T03:52:30;21.90;;;11.23;;
68993;SDS011;56054;50.968;5.816;2024-01-06T03:55:37;17.37;;;9.97;;
68993;SDS011;56054;50.968;5.816;2024-01-06T03:58:44;22.50;;;10.07;;
68993;SDS011;56054;50.968;5.816;2024-01-06T04:01:51;22.53;;;9.73;;
68993;SDS011;56054;50.968;5.816;2024-01-06T04:04:58;21.23;;;9.40;;
68993;SDS011;56054;50.968;5.816;2024-01-06T04:08:05;20.53;;;9.40;;
68993;SDS011;56054;50.968;5.816;2024-01-06T04:11:12;18.83;;;9.70;;
68993;SDS011;56054;50.968;5.816;2024-01-06T04:14:19;16.90;;;9.90;;
68993;SDS011;56054;50.968;5.816;2024-01-06T04:17:26;17.93;;;10.03;;
68993;SDS011;56054;50.968;5.816;2024-01-06T04:20:33;18.40;;;10.47;;
68993;SDS011;56054;50.968;5.816;2024-01-06T04:23:40;19.40;;;10.87;;
68993;SDS011;56054;50.968;5.816;2024-01-06T04:26:47;18.50;;;10.27;;
68993;SDS011;56054;50.968;5.816;2024-01-06T04:29:54;22.20;;;10.40;;
68993;SDS011;56054;50.968;5.816;2024-01-06T04:33:01;18.77;;;9.00;;
68993;SDS011;56054;50.968;5.816;2024-01-06T04:36:08;18.47;;;9.97;;
68993;SDS011;56054;50.968;5.816;2024-01-06T04:39:15;17.57;;;8.53;;
68993;SDS011;56054;50.968;5.816;2024-01-06T04:42:22;17.50;;;9.00;;
68993;SDS011;56054;50.968;5.816;2024-01-06T04:45:29;18.73;;;9.47;;
68993;SDS011;56054;50.968;5.816;2024-01-06T04:48:36;16.70;;;8.97;;
68993;SDS011;56054;50.968;5.816;2024-01-06T04:51:44;21.17;;;10.07;;
68993;SDS011;56054;50.968;5.816;2024-01-06T04:54:58;15.47;;;9.17;;
68993;SDS011;56054;50.968;5.816;2024-01-06T04:58:05;21.23;;;10.57;;
68993;SDS011;56054;50.968;5.816;2024-01-06T05:01:12;17.00;;;9.37;;
68993;SDS011;56054;50.968;5.816;2024-01-06T05:04:19;14.90;;;8.70;;
68993;SDS011;56054;50.968;5.816;2024-01-06T05:07:26;17.33;;;9.47;;
68993;SDS011;56054;50.968;5.816;2024-01-06T05:10:33;18.90;;;9.57;;
68993;SDS011;56054;50.968;5.816;2024-01-06T05:13:40;17.80;;;10.33;;
68993;SDS011;56054;50.968;5.816;2024-01-06T05:16:47;19.07;;;9.33;;
68993;SDS011;56054;50.968;5.816;2024-01-06T05:19:54;16.67;;;9.17;;
68993;SDS011;56054;50.968;5.816;2024-01-06T05:23:01;16.77;;;9.70;;
68993;SDS011;56054;50.968;5.816;2024-01-06T05:26:08;19.47;;;10.40;;
68993;SDS011;56054;50.968;5.816;2024-01-06T05:29:15;16.83;;;9.40;;
68993;SDS011;56054;50.968;5.816;2024-01-06T05:32:22;17.17;;;10.27;;
68993;SDS011;56054;50.968;5.816;2024-01-06T05:35:29;20.37;;;10.63;;
68993;SDS011;56054;50.968;5.816;2024-01-06T05:38:36;20.27;;;10.20;;
68993;SDS011;56054;50.968;5.816;2024-01-06T05:41:43;19.03;;;10.27;;
68993;SDS011;56054;50.968;5.816;2024-01-06T05:44:50;16.13;;;9.93;;
68993;SDS011;56054;50.968;5.816;2024-01-06T05:47:57;18.37;;;9.77;;
68993;SDS011;56054;50.968;5.816;2024-01-06T05:51:04;17.70;;;10.37;;
68993;SDS011;56054;50.968;5.816;2024-01-06T05:54:11;16.27;;;10.03;;
68993;SDS011;56054;50.968;5.816;2024-01-06T05:57:18;21.00;;;10.73;;
68993;SDS011;56054;50.968;5.816;2024-01-06T06:00:25;16.70;;;9.50;;
68993;SDS011;56054;50.968;5.816;2024-01-06T06:03:32;19.07;;;10.13;;
68993;SDS011;56054;50.968;5.816;2024-01-06T06:06:39;19.93;;;10.40;;
68993;SDS011;56054;50.968;5.816;2024-01-06T06:09:46;18.30;;;10.67;;
68993;SDS011;56054;50.968;5.816;2024-01-06T06:12:53;17.17;;;9.33;;
68993;SDS011;56054;50.968;5.816;2024-01-06T06:16:00;22.00;;;9.27;;
68993;SDS011;56054;50.968;5.816;2024-01-06T06:19:07;19.17;;;9.73;;
68993;SDS011;56054;50.968;5.816;2024-01-06T06:22:14;21.60;;;9.30;;
68993;SDS011;56054;50.968;5.816;2024-01-06T06:25:21;17.50;;;8.63;;
68993;SDS011;56054;50.968;5.816;2024-01-06T06:28:28;17.40;;;9.23;;
68993;SDS011;56054;50.968;5.816;2024-01-06T06:31:35;18.43;;;8.93;;
68993;SDS011;56054;50.968;5.816;2024-01-06T06:34:42;15.27;;;8.97;;
68993;SDS011;56054;50.968;5.816;2024-01-06T06:37:49;14.50;;;8.30;;
68993;SDS011;56054;50.968;5.816;2024-01-06T06:40:56;15.20;;;8.77;;
68993;SDS011;56054;50.968;5.816;2024-01-06T06:44:03;17.07;;;9.30;;
68993;SDS011;56054;50.968;5.816;2024-01-06T06:47:10;17.60;;;9.90;;
68993;SDS011;56054;50.968;5.816;2024-01-06T06:50:17;15.90;;;9.33;;
68993;SDS011;56054;50.968;5.816;2024-01-06T06:53:24;12.57;;;7.63;;
68993;SDS011;56054;50.968;5.816;2024-01-06T06:56:31;14.43;;;8.30;;
68993;SDS011;56054;50.968;5.816;2024-01-06T06:59:38;16.10;;;8.10;;
68993;SDS011;56054;50.968;5.816;2024-01-06T07:02:45;13.87;;;8.03;;
68993;SDS011;56054;50.968;5.816;2024-01-06T07:05:52;14.70;;;8.27;;
68993;SDS011;56054;50.968;5.816;2024-01-06T07:08:59;15.70;;;8.90;;
68993;SDS011;56054;50.968;5.816;2024-01-06T07:12:06;16.87;;;8.10;;
68993;SDS011;56054;50.968;5.816;2024-01-06T07:15:13;13.83;;;8.13;;
68993;SDS011;56054;50.968;5.816;2024-01-06T07:18:20;13.07;;;7.83;;
68993;SDS011;56054;50.968;5.816;2024-01-06T07:21:27;13.87;;;7.60;;
68993;SDS011;56054;50.968;5.816;2024-01-06T07:24:34;12.27;;;6.90;;
68993;SDS011;56054;50.968;5.816;2024-01-06T07:27:41;15.60;;;7.13;;
68993;SDS011;56054;50.968;5.816;2024-01-06T07:30:48;11.97;;;7.30;;
68993;SDS011;56054;50.968;5.816;2024-01-06T07:33:55;11.00;;;6.63;;
68993;SDS011;56054;50.968;5.816;2024-01-06T07:37:02;12.57;;;7.37;;
68993;SDS011;56054;50.968;5.816;2024-01-06T07:40:10;10.23;;;5.80;;
68993;SDS011;56054;50.968;5.816;2024-01-06T07:43:24;11.37;;;6.37;;
68993;SDS011;56054;50.968;5.816;2024-01-06T07:46:31;12.50;;;7.53;;
68993;SDS011;56054;50.968;5.816;2024-01-06T07:49:38;12.57;;;7.43;;
68993;SDS011;56054;50.968;5.816;2024-01-06T07:52:45;11.87;;;6.83;;
68993;SDS011;56054;50.968;5.816;2024-01-06T07:55:52;12.20;;;6.87;;
68993;SDS011;56054;50.968;5.816;2024-01-06T07:58:59;11.00;;;6.60;;
68993;SDS011;56054;50.968;5.816;2024-01-06T08:02:07;14.00;;;7.17;;
68993;SDS011;56054;50.968;5.816;2024-01-06T08:05:21;14.40;;;8.40;;
68993;SDS011;56054;50.968;5.816;2024-01-06T08:08:28;13.17;;;7.03;;
68993;SDS011;56054;50.968;5.816;2024-01-06T08:11:35;12.63;;;6.37;;
68993;SDS011;56054;50.968;5.816;2024-01-06T08:14:42;9.93;;;6.20;;
68993;SDS011;56054;50.968;5.816;2024-01-06T08:17:49;14.03;;;7.30;;
68993;SDS011;56054;50.968;5.816;2024-01-06T08:20:56;11.80;;;6.40;;
68993;SDS011;56054;50.968;5.816;2024-01-06T08:24:03;12.93;;;6.80;;
68993;SDS011;56054;50.968;5.816;2024-01-06T08:27:10;11.23;;;6.97;;
68993;SDS011;56054;50.968;5.816;2024-01-06T08:30:17;15.10;;;7.23;;
68993;SDS011;56054;50.968;5.816;2024-01-06T08:33:24;12.13;;;6.90;;
68993;SDS011;56054;50.968;5.816;2024-01-06T08:36:31;11.10;;;5.90;;
68993;SDS011;56054;50.968;5.816;2024-01-06T08:39:38;11.20;;;6.40;;
68993;SDS011;56054;50.968;5.816;2024-01-06T08:42:45;10.83;;;6.60;;
68993;SDS011;56054;50.968;5.816;2024-01-06T08:45:52;10.43;;;6.33;;
68993;SDS011;56054;50.968;5.816;2024-01-06T08:48:59;9.57;;;6.43;;
68993;SDS011;56054;50.968;5.816;2024-01-06T08:52:06;10.77;;;5.93;;
68993;SDS011;56054;50.968;5.816;2024-01-06T08:55:13;11.70;;;6.00;;
68993;SDS011;56054;50.968;5.816;2024-01-06T08:58:20;12.33;;;7.50;;
68993;SDS011;56054;50.968;5.816;2024-01-06T09:01:27;13.10;;;6.70;;
68993;SDS011;56054;50.968;5.816;2024-01-06T09:04:34;13.83;;;7.03;;
68993;SDS011;56054;50.968;5.816;2024-01-06T09:07:41;10.73;;;5.10;;
68993;SDS011;56054;50.968;5.816;2024-01-06T09:10:48;8.93;;;4.90;;
68993;SDS011;56054;50.968;5.816;2024-01-06T09:13:55;8.27;;;5.17;;
68993;SDS011;56054;50.968;5.816;2024-01-06T09:17:02;9.17;;;5.17;;
68993;SDS011;56054;50.968;5.816;2024-01-06T09:20:09;10.33;;;5.70;;
68993;SDS011;56054;50.968;5.816;2024-01-06T09:23:16;9.63;;;5.50;;
68993;SDS011;56054;50.968;5.816;2024-01-06T09:26:24;9.23;;;5.43;;
68993;SDS011;56054;50.968;5.816;2024-01-06T09:29:30;7.83;;;5.30;;
68993;SDS011;56054;50.968;5.816;2024-01-06T09:32:37;8.87;;;5.33;;
68993;SDS011;56054;50.968;5.816;2024-01-06T09:35:44;10.70;;;6.20;;
68993;SDS011;56054;50.968;5.816;2024-01-06T09:38:51;13.23;;;5.83;;
68993;SDS011;56054;50.968;5.816;2024-01-06T09:41:58;10.97;;;5.50;;
68993;SDS011;56054;50.968;5.816;2024-01-06T09:45:06;10.00;;;5.70;;
68993;SDS011;56054;50.968;5.816;2024-01-06T09:48:13;9.87;;;5.47;;
68993;SDS011;56054;50.968;5.816;2024-01-06T09:51:21;7.77;;;5.60;;
68993;SDS011;56054;50.968;5.816;2024-01-06T09:54:30;9.80;;;5.17;;
68993;SDS011;56054;50.968;5.816;2024-01-06T09:57:38;12.93;;;5.93;;
68993;SDS011;56054;50.968;5.816;2024-01-06T10:00:44;16.67;;;5.53;;
68993;SDS011;56054;50.968;5.816;2024-01-06T10:03:54;10.67;;;6.03;;
68993;SDS011;56054;50.968;5.816;2024-01-06T10:07:01;14.80;;;6.03;;
68993;SDS011;56054;50.968;5.816;2024-01-06T10:10:09;9.57;;;5.93;;
68993;SDS011;56054;50.968;5.816;2024-01-06T10:13:17;10.70;;;5.30;;
68993;SDS011;56054;50.968;5.816;2024-01-06T10:16:23;8.50;;;5.07;;
68993;SDS011;56054;50.968;5.816;2024-01-06T10:19:30;14.07;;;6.07;;
68993;SDS011;56054;50.968;5.816;2024-01-06T10:22:38;11.13;;;5.57;;
68993;SDS011;56054;50.968;5.816;2024-01-06T10:25:47;12.83;;;7.80;;
68993;SDS011;56054;50.968;5.816;2024-01-06T10:28:54;11.23;;;6.23;;
68993;SDS011;56054;50.968;5.816;2024-01-06T10:32:01;11.67;;;6.03;;
68993;SDS011;56054;50.968;5.816;2024-01-06T10:35:09;10.13;;;5.73;;
68993;SDS011;56054;50.968;5.816;2024-01-06T10:38:16;12.53;;;6.37;;
68993;SDS011;56054;50.968;5.816;2024-01-06T10:41:23;10.47;;;5.47;;
68993;SDS011;56054;50.968;5.816;2024-01-06T10:44:30;10.87;;;5.73;;
68993;SDS011;56054;50.968;5.816;2024-01-06T10:47:40;13.77;;;6.00;;
68993;SDS011;56054;50.968;5.816;2024-01-06T10:50:48;7.97;;;4.87;;
68993;SDS011;56054;50.968;5.816;2024-01-06T10:53:55;10.53;;;6.27;;
68993;SDS011;56054;50.968;5.816;2024-01-06T10:57:04;10.10;;;5.20;;
68993;SDS011;56054;50.968;5.816;2024-01-06T11:00:13;11.80;;;5.87;;
68993;SDS011;56054;50.968;5.816;2024-01-06T11:03:19;12.10;;;5.63;;
68993;SDS011;56054;50.968;5.816;2024-01-06T11:06:27;11.20;;;5.57;;
68993;SDS011;56054;50.968;5.816;2024-01-06T11:09:34;11.40;;;5.33;;
68993;SDS011;56054;50.968;5.816;2024-01-06T11:12:46;13.60;;;6.40;;
68993;SDS011;56054;50.968;5.816;2024-01-06T11:16:32;12.30;;;5.70;;
68993;SDS011;56054;50.968;5.816;2024-01-06T11:19:44;14.40;;;6.03;;
68993;SDS011;56054;50.968;5.816;2024-01-06T11:23:17;11.17;;;6.13;;
68993;SDS011;56054;50.968;5.816;2024-01-06T11:26:25;15.10;;;6.60;;
68993;SDS011;56054;50.968;5.816;2024-01-06T11:29:32;9.93;;;5.87;;
68993;SDS011;56054;50.968;5.816;2024-01-06T11:32:41;11.47;;;6.30;;
68993;SDS011;56054;50.968;5.816;2024-01-06T11:35:48;9.00;;;5.30;;
68993;SDS011;56054;50.968;5.816;2024-01-06T11:38:55;10.40;;;5.40;;
68993;SDS011;56054;50.968;5.816;2024-01-06T11:42:02;8.80;;;4.77;;
68993;SDS011;56054;50.968;5.816;2024-01-06T11:45:09;10.37;;;6.33;;
68993;SDS011;56054;50.968;5.816;2024-01-06T11:48:16;10.40;;;6.27;;
68993;SDS011;56054;50.968;5.816;2024-01-06T11:51:25;12.90;;;7.27;;
68993;SDS011;56054;50.968;5.816;2024-01-06T11:54:33;11.67;;;7.33;;
68993;SDS011;56054;50.968;5.816;2024-01-06T11:57:41;12.87;;;7.73;;
68993;SDS011;56054;50.968;5.816;2024-01-06T12:00:55;10.77;;;6.63;;
68993;SDS011;56054;50.968;5.816;2024-01-06T12:04:03;18.63;;;8.23;;
68993;SDS011;56054;50.968;5.816;2024-01-06T12:07:10;13.77;;;8.20;;
68993;SDS011;56054;50.968;5.816;2024-01-06T12:10:19;12.93;;;7.63;;
68993;SDS011;56054;50.968;5.816;2024-01-06T12:13:26;11.13;;;6.83;;
68993;SDS011;56054;50.968;5.816;2024-01-06T12:16:33;14.03;;;8.67;;
68993;SDS011;56054;50.968;5.816;2024-01-06T12:19:40;18.73;;;7.93;;
68993;SDS011;56054;50.968;5.816;2024-01-06T12:22:47;16.13;;;7.90;;
68993;SDS011;56054;50.968;5.816;2024-01-06T12:26:00;15.83;;;8.40;;
68993;SDS011;56054;50.968;5.816;2024-01-06T12:29:06;11.57;;;7.23;;
68993;SDS011;56054;50.968;5.816;2024-01-06T12:32:13;13.13;;;8.10;;
68993;SDS011;56054;50.968;5.816;2024-01-06T12:35:21;10.20;;;7.03;;
68993;SDS011;56054;50.968;5.816;2024-01-06T12:38:27;12.37;;;7.30;;
68993;SDS011;56054;50.968;5.816;2024-01-06T12:41:37;15.77;;;8.47;;
68993;SDS011;56054;50.968;5.816;2024-01-06T12:44:44;16.23;;;8.43;;
68993;SDS011;56054;50.968;5.816;2024-01-06T12:47:51;14.30;;;8.67;;
68993;SDS011;56054;50.968;5.816;2024-01-06T12:50:58;14.00;;;8.67;;
68993;SDS011;56054;50.968;5.816;2024-01-06T12:54:05;13.03;;;7.80;;
68993;SDS011;56054;50.968;5.816;2024-01-06T12:57:12;18.23;;;8.43;;
68993;SDS011;56054;50.968;5.816;2024-01-06T13:00:19;10.90;;;7.20;;
68993;SDS011;56054;50.968;5.816;2024-01-06T13:03:26;12.90;;;8.13;;
68993;SDS011;56054;50.968;5.816;2024-01-06T13:06:33;13.73;;;8.37;;
68993;SDS011;56054;50.968;5.816;2024-01-06T13:09:40;18.20;;;8.73;;
68993;SDS011;56054;50.968;5.816;2024-01-06T13:12:47;13.27;;;9.00;;
68993;SDS011;56054;50.968;5.816;2024-01-06T13:15:54;14.97;;;9.20;;
68993;SDS011;56054;50.968;5.816;2024-01-06T13:19:01;13.13;;;7.60;;
68993;SDS011;56054;50.968;5.816;2024-01-06T13:22:08;16.53;;;8.17;;
68993;SDS011;56054;50.968;5.816;2024-01-06T13:25:15;16.77;;;9.10;;
68993;SDS011;56054;50.968;5.816;2024-01-06T13:28:23;15.53;;;8.97;;
68993;SDS011;56054;50.968;5.816;2024-01-06T13:31:30;15.17;;;8.40;;
68993;SDS011;56054;50.968;5.816;2024-01-06T13:34:37;14.97;;;8.47;;
68993;SDS011;56054;50.968;5.816;2024-01-06T13:37:44;14.97;;;7.97;;
68993;SDS011;56054;50.968;5.816;2024-01-06T13:40:51;17.60;;;7.67;;
68993;SDS011;56054;50.968;5.816;2024-01-06T13:43:58;13.17;;;7.17;;
68993;SDS011;56054;50.968;5.816;2024-01-06T13:47:05;11.57;;;7.30;;
68993;SDS011;56054;50.968;5.816;2024-01-06T13:50:13;18.03;;;8.03;;
68993;SDS011;56054;50.968;5.816;2024-01-06T13:53:24;12.20;;;7.33;;
68993;SDS011;56054;50.968;5.816;2024-01-06T13:56:30;14.03;;;7.97;;
68993;SDS011;56054;50.968;5.816;2024-01-06T13:59:37;13.83;;;8.57;;
68993;SDS011;56054;50.968;5.816;2024-01-06T14:02:45;15.13;;;7.93;;
68993;SDS011;56054;50.968;5.816;2024-01-06T14:05:52;15.00;;;7.60;;
68993;SDS011;56054;50.968;5.816;2024-01-06T14:09:00;12.80;;;8.13;;
68993;SDS011;56054;50.968;5.816;2024-01-06T14:12:06;11.47;;;6.97;;
68993;SDS011;56054;50.968;5.816;2024-01-06T14:15:14;12.47;;;7.17;;
68993;SDS011;56054;50.968;5.816;2024-01-06T14:18:21;13.97;;;7.23;;
68993;SDS011;56054;50.968;5.816;2024-01-06T14:21:28;10.77;;;6.80;;
68993;SDS011;56054;50.968;5.816;2024-01-06T14:24:35;15.33;;;7.23;;
68993;SDS011;56054;50.968;5.816;2024-01-06T14:27:43;12.47;;;6.77;;
68993;SDS011;56054;50.968;5.816;2024-01-06T14:30:50;11.70;;;7.13;;
68993;SDS011;56054;50.968;5.816;2024-01-06T14:33:57;14.00;;;7.70;;
68993;SDS011;56054;50.968;5.816;2024-01-06T14:37:05;11.43;;;6.77;;
68993;SDS011;56054;50.968;5.816;2024-01-06T14:40:12;13.47;;;8.77;;
68993;SDS011;56054;50.968;5.816;2024-01-06T14:43:18;14.63;;;7.10;;
68993;SDS011;56054;50.968;5.816;2024-01-06T14:46:25;15.83;;;6.87;;
68993;SDS011;56054;50.968;5.816;2024-01-06T14:49:33;11.93;;;7.20;;
68993;SDS011;56054;50.968;5.816;2024-01-06T14:52:39;10.10;;;7.00;;
68993;SDS011;56054;50.968;5.816;2024-01-06T14:55:46;9.27;;;6.60;;
68993;SDS011;56054;50.968;5.816;2024-01-06T14:58:53;12.07;;;6.40;;
68993;SDS011;56054;50.968;5.816;2024-01-06T15:02:00;14.27;;;7.30;;
68993;SDS011;56054;50.968;5.816;2024-01-06T15:05:07;15.43;;;7.47;;
68993;SDS011;56054;50.968;5.816;2024-01-06T15:08:15;12.03;;;6.87;;
68993;SDS011;56054;50.968;5.816;2024-01-06T15:11:21;12.23;;;6.57;;
68993;SDS011;56054;50.968;5.816;2024-01-06T15:14:29;14.03;;;6.23;;
68993;SDS011;56054;50.968;5.816;2024-01-06T15:17:35;11.23;;;7.10;;
68993;SDS011;56054;50.968;5.816;2024-01-06T15:20:42;12.40;;;6.63;;
68993;SDS011;56054;50.968;5.816;2024-01-06T15:23:49;11.03;;;7.00;;
68993;SDS011;56054;50.968;5.816;2024-01-06T15:26:56;11.03;;;7.13;;
68993;SDS011;56054;50.968;5.816;2024-01-06T15:30:04;13.00;;;7.33;;
68993;SDS011;56054;50.968;5.816;2024-01-06T15:33:11;10.57;;;6.60;;
68993;SDS011;56054;50.968;5.816;2024-01-06T15:36:19;11.73;;;6.93;;
68993;SDS011;56054;50.968;5.816;2024-01-06T15:39:25;10.30;;;6.87;;
68993;SDS011;56054;50.968;5.816;2024-01-06T15:42:32;9.47;;;5.93;;
68993;SDS011;56054;50.968;5.816;2024-01-06T15:45:39;10.77;;;6.40;;
68993;SDS011;56054;50.968;5.816;2024-01-06T15:48:46;11.23;;;6.37;;
68993;SDS011;56054;50.968;5.816;2024-01-06T15:51:53;10.67;;;5.60;;
68993;SDS011;56054;50.968;5.816;2024-01-06T15:55:01;12.13;;;6.17;;
68993;SDS011;56054;50.968;5.816;2024-01-06T15:58:07;9.03;;;5.10;;
68993;SDS011;56054;50.968;5.816;2024-01-06T16:01:14;10.50;;;6.10;;
68993;SDS011;56054;50.968;5.816;2024-01-06T16:04:21;9.70;;;5.73;;
68993;SDS011;56054;50.968;5.816;2024-01-06T16:07:28;9.83;;;6.07;;
68993;SDS011;56054;50.968;5.816;2024-01-06T16:10:35;12.37;;;6.73;;
68993;SDS011;56054;50.968;5.816;2024-01-06T16:13:42;11.47;;;6.60;;
68993;SDS011;56054;50.968;5.816;2024-01-06T16:16:49;11.60;;;6.20;;
68993;SDS011;56054;50.968;5.816;2024-01-06T16:19:56;14.20;;;7.10;;
68993;SDS011;56054;50.968;5.816;2024-01-06T16:23:04;11.50;;;6.57;;
68993;SDS011;56054;50.968;5.816;2024-01-06T16:26:10;12.53;;;6.97;;
68993;SDS011;56054;50.968;5.816;2024-01-06T16:29:17;12.50;;;7.00;;
68993;SDS011;56054;50.968;5.816;2024-01-06T16:32:24;14.67;;;7.30;;
68993;SDS011;56054;50.968;5.816;2024-01-06T16:35:32;14.37;;;7.70;;
68993;SDS011;56054;50.968;5.816;2024-01-06T16:38:39;16.53;;;10.90;;
68993;SDS011;56054;50.968;5.816;2024-01-06T16:41:46;21.93;;;14.20;;
68993;SDS011;56054;50.968;5.816;2024-01-06T16:44:54;11.40;;;6.63;;
68993;SDS011;56054;50.968;5.816;2024-01-06T16:48:00;11.33;;;6.80;;
68993;SDS011;56054;50.968;5.816;2024-01-06T16:51:08;12.83;;;7.53;;
68993;SDS011;56054;50.968;5.816;2024-01-06T16:54:14;14.03;;;7.63;;
68993;SDS011;56054;50.968;5.816;2024-01-06T16:57:22;13.53;;;7.40;;
68993;SDS011;56054;50.968;5.816;2024-01-06T17:00:29;12.03;;;7.80;;
68993;SDS011;56054;50.968;5.816;2024-01-06T17:03:35;13.23;;;7.77;;
68993;SDS011;56054;50.968;5.816;2024-01-06T17:06:43;13.87;;;8.63;;
68993;SDS011;56054;50.968;5.816;2024-01-06T17:09:49;15.03;;;7.73;;
68993;SDS011;56054;50.968;5.816;2024-01-06T17:12:57;15.07;;;9.50;;
68993;SDS011;56054;50.968;5.816;2024-01-06T17:16:04;16.60;;;8.17;;
68993;SDS011;56054;50.968;5.816;2024-01-06T17:19:11;16.07;;;9.67;;
68993;SDS011;56054;50.968;5.816;2024-01-06T17:22:24;13.27;;;8.40;;
68993;SDS011;56054;50.968;5.816;2024-01-06T17:25:32;13.67;;;8.33;;
68993;SDS011;56054;50.968;5.816;2024-01-06T17:28:38;15.57;;;10.13;;
68993;SDS011;56054;50.968;5.816;2024-01-06T17:31:46;29.17;;;17.43;;
68993;SDS011;56054;50.968;5.816;2024-01-06T17:34:53;22.13;;;12.63;;
68993;SDS011;56054;50.968;5.816;2024-01-06T17:38:00;21.77;;;11.93;;
68993;SDS011;56054;50.968;5.816;2024-01-06T17:41:07;21.63;;;11.80;;
68993;SDS011;56054;50.968;5.816;2024-01-06T17:44:14;19.70;;;11.30;;
68993;SDS011;56054;50.968;5.816;2024-01-06T17:47:21;20.50;;;11.80;;
68993;SDS011;56054;50.968;5.816;2024-01-06T17:50:28;21.87;;;11.73;;
68993;SDS011;56054;50.968;5.816;2024-01-06T17:53:35;24.60;;;12.20;;
68993;SDS011;56054;50.968;5.816;2024-01-06T17:56:42;22.97;;;13.63;;
68993;SDS011;56054;50.968;5.816;2024-01-06T17:59:49;21.63;;;12.03;;
68993;SDS011;56054;50.968;5.816;2024-01-06T18:02:56;21.37;;;11.60;;
68993;SDS011;56054;50.968;5.816;2024-01-06T18:06:03;23.17;;;12.83;;
68993;SDS011;56054;50.968;5.816;2024-01-06T18:09:10;22.40;;;12.97;;
68993;SDS011;56054;50.968;5.816;2024-01-06T18:12:17;27.40;;;13.30;;
68993;SDS011;56054;50.968;5.816;2024-01-06T18:15:24;29.10;;;12.70;;
68993;SDS011;56054;50.968;5.816;2024-01-06T18:18:31;21.87;;;11.97;;
68993;SDS011;56054;50.968;5.816;2024-01-06T18:21:38;22.40;;;11.97;;
68993;SDS011;56054;50.968;5.816;2024-01-06T18:24:45;23.60;;;12.10;;
68993;SDS011;56054;50.968;5.816;2024-01-06T18:27:52;23.13;;;12.60;;
68993;SDS011;56054;50.968;5.816;2024-01-06T18:30:59;21.40;;;11.60;;